Time;durP1;ratioP1;P1;durP2;ratioP2;P2;SDS_P1;SDS_P2;PMS_P1;PMS_P2;Temp;Humidity;BMP_temperature;BMP_pressure;BME280_temperature;BME280_humidity;BME280_pressure;Samples;Min_cycle;Max_cycle;Signal;HPM_P1;HPM_P2
2022/12/08 00:01:37;;;;;;;13.55;4.68;;;;;;;-7.90;72.16;100230.97;4820841;28;20369;-60
2022/12/08 00:04:20;;;;;;;36.15;14.82;;;;;;;-7.60;71.51;100291.84;4939684;28;20079;-60
2022/12/08 00:10:12;;;;;;;19.00;8.10;;;;;;;-7.48;71.68;100297.63;4907208;28;20393;-60
2022/12/08 00:16:56;;;;;;;11.35;5.18;;;;;;;-7.30;71.98;100297.75;4915515;28;20034;-60
2022/12/08 00:19:58;;;;;;;21.52;8.80;;;;;;;-7.34;71.24;100284.81;4919753;28;20041;-60
2022/12/08 00:23:21;;;;;;;12.48;6.35;;;;;;;-7.31;71.68;100275.72;4919944;28;20064;-60
2022/12/08 00:29:08;;;;;;;13.73;6.38;;;;;;;-6.80;71.02;100286.06;4910534;28;20055;-61
2022/12/08 00:32:02;;;;;;;20.40;9.82;;;;;;;-6.75;70.14;100279.56;4896130;28;20041;-60
2022/12/08 00:34:48;;;;;;;14.88;6.88;;;;;;;-6.66;70.49;100280.06;4931945;28;20051;-61
2022/12/08 00:37:46;;;;;;;11.82;6.35;;;;;;;-6.75;69.55;100279.56;4847836;28;20053;-60
2022/12/08 00:46:18;;;;;;;13.23;5.38;;;;;;;-6.66;69.86;100286.78;4941025;28;20040;-60
2022/12/08 00:48:57;;;;;;;16.60;6.47;;;;;;;-6.63;68.89;100285.28;4928834;28;20047;-60
2022/12/08 00:55:06;;;;;;;9.55;5.05;;;;;;;-6.34;68.65;100291.00;4920213;28;20158;-60
2022/12/08 00:58:07;;;;;;;15.20;5.88;;;;;;;-6.36;68.23;100284.97;4930426;28;20040;-60
2022/12/08 01:04:09;;;;;;;12.00;6.22;;;;;;;-6.43;68.11;100252.41;4901873;28;20046;-60
2022/12/08 01:07:07;;;;;;;12.13;5.93;;;;;;;-6.05;67.72;100286.53;4898865;28;20042;-60
2022/12/08 01:10:02;;;;;;;14.02;5.45;;;;;;;-5.73;67.67;100286.44;4863140;28;20553;-60
2022/12/08 01:13:05;;;;;;;13.15;6.20;;;;;;;-5.53;67.16;100278.91;4918922;28;20044;-61
2022/12/08 01:15:46;;;;;;;14.68;5.60;;;;;;;-5.17;66.89;100279.75;4938978;28;20376;-60
2022/12/08 01:18:31;;;;;;;17.98;7.30;;;;;;;-4.88;65.79;100283.66;4916881;28;20044;-61
2022/12/08 01:21:22;;;;;;;14.63;6.05;;;;;;;-4.79;64.86;100273.88;4954048;28;20056;-61
2022/12/08 01:24:01;;;;;;;10.88;4.63;;;;;;;-4.49;65.19;100273.50;4911593;28;20260;-60
2022/12/08 01:26:56;;;;;;;15.82;6.22;;;;;;;-4.08;64.38;100264.19;4933854;28;20048;-61
2022/12/08 01:29:50;;;;;;;11.95;5.25;;;;;;;-3.84;63.56;100251.59;4927316;28;20058;-60
2022/12/08 01:35:24;;;;;;;11.27;5.53;;;;;;;-3.75;61.98;100245.97;4882944;28;20160;-60
2022/12/08 01:38:10;;;;;;;12.98;4.57;;;;;;;-3.42;61.14;100250.69;4841388;28;20048;-61
2022/12/08 01:40:56;;;;;;;10.35;4.03;;;;;;;-3.25;59.92;100249.66;4873412;28;20335;-60
2022/12/08 01:44:28;;;;;;;8.77;4.35;;;;;;;-2.93;60.01;100252.59;4926565;28;20101;-60
2022/12/08 01:47:19;;;;;;;11.40;3.13;;;;;;;-3.14;58.02;100253.53;4874035;28;20048;-60
2022/12/08 01:50:09;;;;;;;4.20;2.38;;;;;;;-3.70;57.66;100234.28;4902020;28;20067;-60
2022/12/08 01:53:01;;;;;;;6.65;3.22;;;;;;;-4.35;58.85;100252.00;4854265;28;20100;-60
2022/12/08 01:55:43;;;;;;;6.93;2.90;;;;;;;-4.84;60.26;100249.88;4900587;28;20051;-60
2022/12/08 01:58:27;;;;;;;8.70;3.35;;;;;;;-5.41;60.74;100208.19;4878906;28;20057;-60
2022/12/08 02:01:12;;;;;;;10.13;4.25;;;;;;;-5.68;63.35;100249.34;4931156;28;20057;-60
2022/12/08 02:04:05;;;;;;;7.95;4.07;;;;;;;-5.96;63.79;100249.72;4895588;28;20356;-60
2022/12/08 02:07:02;;;;;;;11.13;4.72;;;;;;;-6.04;65.08;100252.66;4900748;28;20456;-60
2022/12/08 02:09:46;;;;;;;14.15;6.43;;;;;;;-6.28;66.33;100249.78;4892718;28;20427;-60
2022/12/08 02:12:42;;;;;;;12.13;6.68;;;;;;;-6.46;67.06;100252.22;4901313;28;20041;-61
2022/12/08 02:15:28;;;;;;;11.80;5.55;;;;;;;-6.43;67.79;100250.72;4842923;28;20275;-60
2022/12/08 02:21:52;;;;;;;11.73;4.50;;;;;;;-6.20;67.52;100240.84;4902897;28;20051;-60
2022/12/08 02:24:44;;;;;;;8.90;3.95;;;;;;;-6.01;65.72;100243.53;4879901;28;20057;-60
2022/12/08 02:28:08;;;;;;;5.55;3.10;;;;;;;-5.81;65.10;100247.00;4895087;28;20055;-61
2022/12/08 02:31:08;;;;;;;8.93;3.53;;;;;;;-5.68;63.71;100228.97;4906201;28;20037;-61
2022/12/08 02:34:25;;;;;;;6.57;2.90;;;;;;;-5.63;62.56;100234.28;4861956;28;20048;-60
2022/12/08 02:40:37;;;;;;;5.18;2.95;;;;;;;-5.29;60.78;100233.31;4898259;28;20051;-61
2022/12/08 02:43:38;;;;;;;6.85;3.05;;;;;;;-5.20;60.04;100232.06;4926101;28;20033;-60
2022/12/08 02:46:31;;;;;;;;;;;;;;;-5.07;59.64;100228.41;4904179;28;20108;-61
2022/12/08 02:49:14;;;;;;;6.18;2.92;;;;;;;-4.89;59.14;100223.31;4919759;28;19916;-60
2022/12/08 02:54:59;;;;;;;6.68;2.78;;;;;;;-4.66;58.38;100228.53;4907437;28;20037;-60
2022/12/08 02:58:19;;;;;;;4.03;2.42;;;;;;;-4.65;56.46;100232.81;4914140;28;20081;-61
2022/12/08 03:01:34;;;;;;;5.18;2.80;;;;;;;-4.42;56.40;100233.81;4850375;28;20057;-61
2022/12/08 03:04:25;;;;;;;5.43;2.28;;;;;;;-4.47;55.78;100231.06;4855570;28;20052;-60
2022/12/08 03:07:27;;;;;;;5.88;2.47;;;;;;;-4.45;55.56;100228.59;4867191;28;20048;-60
2022/12/08 03:10:17;;;;;;;5.50;2.60;;;;;;;-4.27;55.92;100228.50;4861896;28;20066;-61
2022/12/08 03:13:32;;;;;;;3.47;2.45;;;;;;;-4.01;56.02;100233.03;4848483;28;20038;-60
2022/12/08 03:16:10;;;;;;;4.90;2.50;;;;;;;-4.75;54.63;100108.31;4823299;28;20340;-61
2022/12/08 03:18:51;;;;;;;3.90;2.30;;;;;;;-4.25;54.18;100237.09;4863975;28;20055;-61
2022/12/08 03:21:45;;;;;;;3.80;2.20;;;;;;;-4.37;53.83;100247.63;4850216;28;20050;-61
2022/12/08 03:24:57;;;;;;;4.68;2.45;;;;;;;-4.67;54.29;100235.28;4844881;28;20473;-61
2022/12/08 03:28:00;;;;;;;5.85;2.30;;;;;;;-4.61;54.79;100237.28;4877607;28;20092;-60
2022/12/08 03:30:54;;;;;;;5.63;2.40;;;;;;;-4.84;55.12;100244.75;4892213;28;20045;-60
2022/12/08 03:33:48;;;;;;;7.28;2.88;;;;;;;-5.03;55.28;100242.19;4885359;28;20042;-61
2022/12/08 03:36:30;;;;;;;6.15;2.65;;;;;;;-5.27;55.85;100247.88;4865211;28;20040;-61
2022/12/08 03:42:33;;;;;;;;;;;;;;;-5.38;58.32;100249.06;4907339;28;20053;-60
2022/12/08 03:45:21;;;;;;;2.50;2.00;;;;;;;-5.32;57.69;100244.25;4901170;28;19917;-61
2022/12/08 03:47:59;;;;;;;5.22;2.33;;;;;;;-5.41;58.26;100233.66;4890023;28;20057;-61
2022/12/08 03:50:46;;;;;;;4.45;2.22;;;;;;;-5.87;58.45;100185.63;4900809;28;20108;-62
2022/12/08 03:53:36;;;;;;;4.65;2.38;;;;;;;-5.53;58.61;100233.06;4932800;28;20104;-61
2022/12/08 03:56:33;;;;;;;3.85;2.20;;;;;;;-5.48;57.98;100239.25;4881969;28;20040;-61
2022/12/08 03:59:15;;;;;;;5.15;2.38;;;;;;;-5.70;57.82;100183.88;4886155;28;20110;-61
2022/12/08 04:02:09;;;;;;;3.95;2.28;;;;;;;-5.30;57.68;100241.78;4905030;28;20069;-61
2022/12/08 04:04:52;;;;;;;4.47;2.55;;;;;;;-5.15;56.84;100256.91;4880957;28;20066;-61
2022/12/08 04:07:49;;;;;;;2.80;2.00;;;;;;;-5.08;56.72;100243.66;4863288;28;20114;-61
2022/12/08 04:10:53;;;;;;;9.52;2.33;;;;;;;-4.95;56.54;100256.13;4924044;28;20040;-61
2022/12/08 04:13:41;;;;;;;4.90;2.53;;;;;;;-4.83;56.38;100256.69;4885351;28;20234;-61
2022/12/08 04:16:26;;;;;;;3.63;2.13;;;;;;;-4.97;55.78;100247.53;4894228;28;20051;-61
2022/12/08 04:19:14;;;;;;;3.45;2.15;;;;;;;-4.89;56.05;100276.81;4915923;28;20044;-61
2022/12/08 04:22:14;;;;;;;6.03;2.30;;;;;;;-4.56;55.60;100281.69;4904167;28;20045;-61
2022/12/08 04:25:32;;;;;;;4.38;2.50;;;;;;;-4.37;55.12;100284.25;4885830;28;20037;-61
2022/12/08 04:28:10;;;;;;;5.00;2.65;;;;;;;-4.48;54.26;100290.53;4925242;28;20090;-61
2022/12/08 04:31:00;;;;;;;4.88;2.45;;;;;;;-4.61;54.53;100288.25;4882133;28;20141;-60
2022/12/08 04:36:48;;;;;;;6.40;2.28;;;;;;;-4.95;55.62;100304.56;4893130;28;20329;-60
2022/12/08 04:39:28;;;;;;;4.82;2.30;;;;;;;-4.89;56.59;100291.22;4903856;28;20310;-61
2022/12/08 04:48:03;;;;;;;6.63;2.90;;;;;;;-4.78;56.21;100311.31;4900227;28;20048;-61
2022/12/08 04:51:04;;;;;;;8.50;2.30;;;;;;;-4.91;54.69;100314.09;4864870;28;20318;-60
2022/12/08 04:54:13;;;;;;;7.38;2.33;;;;;;;-5.23;54.39;100321.09;4890236;28;20078;-61
2022/12/08 04:56:59;;;;;;;3.83;2.33;;;;;;;-5.35;54.67;100330.69;4890752;28;20041;-61
2022/12/08 05:00:13;;;;;;;6.50;2.47;;;;;;;-5.22;55.97;100312.69;4883807;28;20107;-60
2022/12/08 05:03:31;;;;;;;5.03;2.25;;;;;;;-5.23;55.19;100321.09;4908958;28;20063;-60
2022/12/08 05:06:08;;;;;;;7.03;2.33;;;;;;;-5.47;52.89;100332.63;4890923;28;20235;-60
2022/12/08 05:08:54;;;;;;;2.88;1.80;;;;;;;-5.72;50.86;100333.97;4929184;28;20045;-60
2022/12/08 05:11:43;;;;;;;4.57;2.05;;;;;;;-5.88;51.21;100336.56;4925779;28;20051;-60
2022/12/08 05:14:23;;;;;;;4.47;1.98;;;;;;;-5.92;52.24;100339.75;4867516;28;20091;-60
2022/12/08 05:17:06;;;;;;;3.15;1.90;;;;;;;-5.83;52.94;100335.13;4911816;28;20040;-60
2022/12/08 05:23:10;;;;;;;5.50;2.00;;;;;;;-5.92;51.56;100337.19;4890665;28;20237;-60
2022/12/08 05:25:59;;;;;;;3.35;1.65;;;;;;;-6.13;51.61;100316.66;4867560;28;20392;-60
2022/12/08 05:28:57;;;;;;;4.53;2.17;;;;;;;-6.18;50.92;100326.59;4870637;28;20050;-61
2022/12/08 05:31:50;;;;;;;6.32;2.05;;;;;;;-6.57;50.57;100290.69;4856652;28;20328;-61
2022/12/08 05:34:43;;;;;;;4.47;1.90;;;;;;;-6.40;51.14;100344.09;4825524;28;20037;-61
2022/12/08 05:37:24;;;;;;;2.53;1.70;;;;;;;-6.43;50.96;100341.38;4856466;28;20371;-61
2022/12/08 05:40:12;;;;;;;3.15;1.85;;;;;;;-6.51;50.53;100341.00;4871565;28;20045;-61
2022/12/08 05:42:47;;;;;;;3.05;2.00;;;;;;;-6.57;50.71;100346.59;4875977;28;20096;-61
2022/12/08 05:45:49;;;;;;;3.90;1.83;;;;;;;-6.58;51.01;100349.94;4879502;28;20041;-61
2022/12/08 05:51:31;;;;;;;2.10;1.80;;;;;;;-6.91;50.43;100343.03;4854326;28;20042;-62
2022/12/08 05:54:09;;;;;;;3.85;2.05;;;;;;;-7.22;51.03;100323.56;4843635;28;20066;-62
2022/12/08 05:56:53;;;;;;;5.78;1.83;;;;;;;-7.12;51.69;100343.59;4845760;28;20470;-61
2022/12/08 05:59:39;;;;;;;6.13;2.00;;;;;;;-7.23;52.41;100334.53;4908026;28;20046;-61
2022/12/08 06:02:21;;;;;;;7.20;2.67;;;;;;;-7.17;52.25;100347.56;4844402;28;20194;-61
2022/12/08 06:04:58;;;;;;;4.60;2.88;;;;;;;-7.22;52.80;100356.59;4903136;28;20097;-62
2022/12/08 06:10:38;;;;;;;7.07;2.10;;;;;;;-7.40;54.01;100364.91;4916158;28;20612;-62
2022/12/08 06:13:29;;;;;;;3.97;2.42;;;;;;;-7.49;53.93;100366.03;4904851;28;20124;-62
2022/12/08 06:16:10;;;;;;;3.17;2.33;;;;;;;-7.55;54.29;100374.19;4880651;28;20056;-61
2022/12/08 06:18:49;;;;;;;4.07;2.28;;;;;;;-7.78;54.30;100362.72;4939171;28;20044;-62
2022/12/08 06:21:37;;;;;;;3.33;2.00;;;;;;;-7.83;54.27;100370.06;4920257;28;20095;-61
2022/12/08 06:24:19;;;;;;;3.75;2.03;;;;;;;-7.76;55.31;100390.69;4939722;28;20310;-61
2022/12/08 06:27:23;;;;;;;6.95;2.28;;;;;;;-7.79;56.20;100390.53;4915006;28;20042;-61
2022/12/08 06:30:04;;;;;;;10.05;2.65;;;;;;;-7.85;57.13;100394.44;4907944;28;20056;-61
2022/12/08 06:32:50;;;;;;;7.65;2.83;;;;;;;-8.03;57.62;100383.22;4877638;28;20048;-61
2022/12/08 06:38:33;;;;;;;5.65;2.25;;;;;;;-8.13;59.25;100408.81;4823940;28;20121;-62
2022/12/08 06:47:01;;;;;;;5.47;2.72;;;;;;;-8.38;62.03;100447.88;4866270;28;20051;-61
2022/12/08 06:49:53;;;;;;;13.82;3.00;;;;;;;-8.42;60.86;100451.03;4850809;28;20085;-61
2022/12/08 06:52:51;;;;;;;33.60;13.57;;;;;;;-8.50;60.46;100444.59;4868489;28;20035;-61
2022/12/08 06:55:50;;;;;;;21.38;9.35;;;;;;;-8.49;61.20;100453.94;4846515;28;20163;-62
2022/12/08 06:58:31;;;;;;;13.05;5.43;;;;;;;-8.66;61.19;100440.25;4839561;28;20042;-61
2022/12/08 07:01:53;;;;;;;8.48;3.85;;;;;;;-8.98;60.93;100444.13;4844765;28;20046;-61
2022/12/08 07:04:29;;;;;;;72.63;27.00;;;;;;;-9.48;61.30;100448.41;4836139;28;20057;-61
2022/12/08 07:07:20;;;;;;;31.48;12.07;;;;;;;-9.95;62.84;100456.25;4871712;28;20060;-61
2022/12/08 07:10:34;;;;;;;12.88;6.70;;;;;;;-10.20;63.93;100436.88;4854836;28;20569;-61
2022/12/08 07:13:29;;;;;;;47.05;18.05;;;;;;;-10.45;64.67;100432.66;4834719;28;20039;-61
2022/12/08 07:16:39;;;;;;;51.10;18.00;;;;;;;-10.60;65.57;100451.81;4914963;28;20061;-61
2022/12/08 07:19:27;;;;;;;28.40;10.88;;;;;;;-10.79;66.23;100459.72;4912410;28;20440;-61
2022/12/08 07:22:14;;;;;;;15.38;7.97;;;;;;;-11.09;67.42;100474.41;4929398;28;20045;-61
2022/12/08 07:27:49;;;;;;;88.13;31.67;;;;;;;-11.43;68.76;100478.63;4871803;28;20264;-61
2022/12/08 07:33:42;;;;;;;65.22;23.58;;;;;;;-11.53;69.51;100483.72;4888322;28;20067;-61
2022/12/08 07:36:33;;;;;;;35.22;14.30;;;;;;;-11.51;69.97;100482.19;4919964;28;20067;-61
2022/12/08 07:39:32;;;;;;;35.00;14.73;;;;;;;-12.34;69.46;100349.19;4888524;28;20451;-61
2022/12/08 07:42:17;;;;;;;50.60;19.33;;;;;;;-11.70;69.44;100496.72;4909402;28;20051;-61
2022/12/08 07:45:07;;;;;;;14.85;5.38;;;;;;;-12.00;70.34;100503.75;4939567;28;20112;-60
2022/12/08 07:47:53;;;;;;;13.68;6.13;;;;;;;-12.13;70.88;100496.00;4904336;28;20062;-61
2022/12/08 07:50:52;;;;;;;139.07;26.75;;;;;;;-12.17;71.89;100500.81;4933365;28;20040;-61
2022/12/08 07:53:40;;;;;;;334.48;71.85;;;;;;;-12.29;72.15;100484.75;4850923;28;20050;-61
2022/12/08 07:59:15;;;;;;;113.18;24.63;;;;;;;-12.34;72.40;100501.13;4889481;28;20075;-60
2022/12/08 08:02:16;;;;;;;36.22;11.80;;;;;;;-12.51;72.96;100498.94;4921225;28;20361;-60
2022/12/08 08:05:05;;;;;;;50.55;13.20;;;;;;;-12.54;73.51;100496.19;4878421;28;20060;-60
2022/12/08 08:07:50;;;;;;;12.27;5.20;;;;;;;-12.68;74.50;100488.44;4876216;28;20063;-60
2022/12/08 08:10:37;;;;;;;18.67;6.22;;;;;;;-12.65;74.40;100493.69;4871759;28;20076;-60
2022/12/08 08:13:23;;;;;;;10.00;4.20;;;;;;;-12.66;74.56;100496.97;4879295;28;20046;-60
2022/12/08 08:16:18;;;;;;;12.13;5.65;;;;;;;-12.60;74.53;100502.50;4900403;28;20067;-60
2022/12/08 08:19:08;;;;;;;96.72;29.58;;;;;;;-12.44;74.76;100498.66;4936620;28;20053;-59
2022/12/08 08:24:45;;;;;;;18.08;8.80;;;;;;;-12.39;74.18;100492.34;4879911;28;21998;-61
2022/12/08 08:27:30;;;;;;;21.88;10.32;;;;;;;-12.66;73.93;100486.88;4894965;28;20063;-60
2022/12/08 08:30:24;;;;;;;83.07;24.40;;;;;;;-13.10;74.17;100448.16;4904043;28;20449;-60
2022/12/08 08:36:08;;;;;;;78.88;21.52;;;;;;;-13.23;75.10;100433.69;4906007;28;20038;-59
2022/12/08 08:39:02;;;;;;;69.57;20.00;;;;;;;-13.06;75.25;100458.56;4883318;28;20056;-60
2022/12/08 08:42:03;;;;;;;83.15;26.75;;;;;;;-12.71;75.11;100513.34;4869212;28;20079;-59
2022/12/08 08:44:41;;;;;;;84.63;25.38;;;;;;;-12.73;74.99;100514.84;4907102;28;20044;-60
2022/12/08 08:47:20;;;;;;;40.67;14.55;;;;;;;-12.80;74.74;100515.13;4911561;28;20233;-60
2022/12/08 08:50:28;;;;;;;20.88;8.55;;;;;;;-12.92;74.68;100506.59;4896801;28;20045;-60
2022/12/08 08:53:10;;;;;;;10.82;5.07;;;;;;;-13.26;74.82;100453.56;4904327;28;20045;-60
2022/12/08 08:56:04;;;;;;;10.23;4.38;;;;;;;-13.04;74.69;100501.47;4877051;28;20089;-60
2022/12/08 08:58:43;;;;;;;8.48;4.50;;;;;;;-12.98;74.97;100501.06;4860510;28;20362;-60
2022/12/08 09:01:45;;;;;;;13.20;6.32;;;;;;;-13.05;74.84;100490.53;4888313;28;20305;-61
2022/12/08 09:20:30;;;;;;;20.55;7.60;;;;;;;-13.19;75.41;100546.34;4727496;29;20051;-60
2022/12/08 09:23:12;;;;;;;28.63;9.38;;;;;;;-13.47;75.75;100524.00;4737293;29;20266;-59
2022/12/08 09:25:48;;;;;;;87.72;27.08;;;;;;;-13.28;75.71;100555.69;4747223;29;20069;-59
2022/12/08 09:28:25;;;;;;;59.03;18.85;;;;;;;-13.29;75.63;100558.97;4748232;29;20044;-61
2022/12/08 09:31:23;;;;;;;100.03;33.80;;;;;;;-13.29;74.78;100558.97;4750079;29;20049;-61
2022/12/08 09:34:10;;;;;;;60.08;22.63;;;;;;;-13.47;74.17;100564.22;4731523;29;20048;-60
2022/12/08 09:43:31;;;;;;;38.78;16.95;;;;;;;-13.73;74.33;100563.66;4762192;29;20047;-60
2022/12/08 09:46:25;;;;;;;36.38;19.13;;;;;;;-13.94;74.53;100538.50;4735188;29;20055;-60
2022/12/08 09:49:19;;;;;;;;;;;;;;;-13.69;74.65;100568.22;4814232;28;20530;-61
2022/12/08 09:52:05;;;;;;;16.65;7.78;;;;;;;-13.50;74.99;100574.03;4807270;28;19949;-61
2022/12/08 09:54:57;;;;;;;12.32;6.78;;;;;;;-13.29;75.35;100564.00;4827915;28;20042;-61
2022/12/08 09:58:27;;;;;;;6.95;4.22;;;;;;;-13.21;75.40;100547.88;4836765;28;20054;-59
2022/12/08 10:01:15;;;;;;;7.95;3.50;;;;;;;-13.10;74.60;100572.28;4806044;28;20085;-61
2022/12/08 10:04:08;;;;;;;15.50;8.18;;;;;;;-13.26;74.66;100559.19;4808229;28;20113;-61
2022/12/08 10:06:48;;;;;;;18.92;9.18;;;;;;;-13.21;74.43;100567.97;4836390;28;20062;-60
2022/12/08 10:12:56;;;;;;;14.82;7.78;;;;;;;-12.93;74.98;100566.06;4836968;28;20074;-61
2022/12/08 10:25:31;;;;;;;21.65;9.07;;;;;;;-13.69;72.38;100560.69;4772180;28;20050;-59
2022/12/08 10:28:28;;;;;;;30.67;11.93;;;;;;;-13.63;72.52;100586.31;4859351;28;20050;-61
2022/12/08 10:35:24;;;;;;;23.33;9.38;;;;;;;-13.88;73.74;100462.78;4816258;28;20145;-61
2022/12/08 10:38:24;;;;;;;30.27;11.20;;;;;;;-13.34;73.01;100565.25;4845856;28;20208;-60
2022/12/08 10:41:16;;;;;;;26.17;10.98;;;;;;;-13.62;72.41;100572.13;4858272;28;20056;-60
2022/12/08 10:44:14;;;;;;;54.10;19.35;;;;;;;-14.74;72.55;100427.09;4859630;28;20502;-60
2022/12/08 10:46:49;;;;;;;38.45;16.63;;;;;;;-13.73;72.76;100588.78;4809064;28;20050;-60
2022/12/08 10:49:37;;;;;;;19.45;9.70;;;;;;;-13.80;73.14;100596.56;4817157;28;20042;-60
2022/12/08 10:52:36;;;;;;;27.23;10.40;;;;;;;-13.81;73.96;100587.28;4839466;28;20050;-60
2022/12/08 10:55:18;;;;;;;38.80;13.57;;;;;;;-13.69;74.43;100610.94;4844094;28;20054;-60
2022/12/08 10:58:10;;;;;;;35.55;15.60;;;;;;;-13.53;74.74;100613.97;4908806;28;20045;-60
2022/12/08 11:01:22;;;;;;;48.45;18.67;;;;;;;-13.52;74.43;100605.69;4859924;28;20064;-60
2022/12/08 11:06:53;;;;;;;51.10;20.23;;;;;;;-13.76;73.00;100614.53;4912581;28;20036;-60
2022/12/08 11:09:52;;;;;;;48.25;17.65;;;;;;;-13.89;72.33;100600.81;4902286;28;20105;-60
2022/12/08 11:12:44;;;;;;;31.17;14.38;;;;;;;-14.13;72.04;100595.44;4910719;28;20040;-60
2022/12/08 11:15:51;;;;;;;68.13;17.15;;;;;;;-14.15;72.43;100601.94;4880514;28;20037;-60
2022/12/08 11:19:02;;;;;;;121.32;33.17;;;;;;;-14.13;72.90;100587.91;4881873;28;20065;-60
2022/12/08 11:21:46;;;;;;;106.95;31.67;;;;;;;-14.15;73.11;100586.88;4925280;28;20044;-60
2022/12/08 11:24:32;;;;;;;91.07;29.52;;;;;;;-14.12;73.46;100597.22;4890296;28;20045;-60
2022/12/08 11:27:35;;;;;;;99.80;30.02;;;;;;;-14.22;73.67;100595.53;4848479;28;20914;-60
2022/12/08 11:30:47;;;;;;;77.00;24.35;;;;;;;-14.23;73.68;100590.38;4900830;28;20053;-60
2022/12/08 11:33:36;;;;;;;53.80;18.15;;;;;;;-14.20;73.81;100583.09;4848977;28;20080;-61
2022/12/08 11:39:18;;;;;;;42.60;16.90;;;;;;;-14.01;74.29;100581.41;4909056;28;20041;-60
2022/12/08 11:42:14;;;;;;;38.70;15.73;;;;;;;-14.80;73.63;100491.03;4911665;28;20043;-60
2022/12/08 11:44:58;;;;;;;50.45;16.35;;;;;;;-14.64;73.05;100548.41;4875983;28;20049;-59
2022/12/08 11:47:50;;;;;;;44.28;14.35;;;;;;;-14.57;72.72;100584.97;4872544;28;20104;-60
2022/12/08 11:50:47;;;;;;;43.88;16.20;;;;;;;-14.70;72.95;100572.06;4922467;28;20076;-60
2022/12/08 11:53:42;;;;;;;43.47;13.85;;;;;;;-14.76;73.12;100594.13;4902873;28;20041;-60
2022/12/08 11:56:36;;;;;;;41.53;14.80;;;;;;;-14.80;73.82;100591.34;4909083;28;20194;-60
2022/12/08 11:59:22;;;;;;;55.03;19.60;;;;;;;-14.81;74.07;100579.53;4884073;28;20128;-60
2022/12/08 12:02:10;;;;;;;48.20;19.30;;;;;;;-14.62;74.56;100588.69;4893207;28;20067;-59
2022/12/08 12:05:34;;;;;;;61.38;24.35;;;;;;;-14.56;74.62;100587.59;4958112;28;20044;-60
2022/12/08 12:08:52;;;;;;;44.45;19.58;;;;;;;-14.49;74.49;100594.00;4932825;28;20355;-60
2022/12/08 12:14:57;;;;;;;53.35;21.30;;;;;;;-14.61;74.26;100597.97;4842070;28;20058;-61
2022/12/08 12:18:00;;;;;;;39.58;18.42;;;;;;;-14.72;74.44;100556.91;4890933;28;20157;-60
2022/12/08 12:20:56;;;;;;;32.38;14.93;;;;;;;-14.52;74.19;100593.75;4899975;28;20057;-60
2022/12/08 12:23:40;;;;;;;24.67;12.25;;;;;;;-14.49;74.45;100599.03;4911034;28;20044;-61
2022/12/08 12:26:25;;;;;;;25.02;10.90;;;;;;;-14.65;73.87;100589.31;4908947;28;20080;-61
2022/12/08 12:29:13;;;;;;;50.50;16.60;;;;;;;-14.85;73.28;100602.59;4906884;28;20053;-60
2022/12/08 12:31:59;;;;;;;446.40;74.03;;;;;;;-14.96;73.27;100605.75;4898245;28;20056;-61
2022/12/08 12:38:59;;;;;;;152.57;33.35;;;;;;;-14.85;74.20;100615.13;4910341;28;20080;-60
2022/12/08 12:41:25;;;;;;;98.78;21.42;;;;;;;-14.67;74.62;100617.53;4912164;28;20053;-61
2022/12/08 12:47:58;;;;;;;147.38;26.45;;;;;;;-14.52;74.32;100617.94;4919136;28;20048;-61
2022/12/08 12:50:59;;;;;;;46.35;13.23;;;;;;;-14.93;73.60;100565.91;4933381;28;20073;-61
2022/12/08 12:53:57;;;;;;;;;;;;;;;-14.76;73.30;100616.69;4876098;28;20044;-61
2022/12/08 12:57:05;;;;;;;10.77;4.95;;;;;;;-14.99;72.81;100613.00;4917161;28;19933;-60
2022/12/08 13:06:16;;;;;;;24.98;7.47;;;;;;;-15.08;73.27;100597.13;4879331;28;20587;-60
2022/12/08 13:09:32;;;;;;;35.60;10.05;;;;;;;-15.05;73.69;100607.44;4910173;28;20059;-60
2022/12/08 13:12:23;;;;;;;34.33;8.98;;;;;;;-14.81;74.51;100609.63;4925295;28;20039;-60
2022/12/08 13:15:25;;;;;;;29.27;7.47;;;;;;;-14.57;74.95;100610.06;4885304;28;20326;-60
2022/12/08 13:18:14;;;;;;;40.40;11.13;;;;;;;-14.63;74.26;100604.47;4920575;28;20044;-60
2022/12/08 13:20:59;;;;;;;39.80;11.18;;;;;;;-14.71;74.39;100590.38;4859889;28;20286;-61
2022/12/08 13:24:23;;;;;;;43.47;13.82;;;;;;;-14.60;74.53;100609.75;4934211;28;20044;-60
2022/12/08 13:27:56;;;;;;;43.67;12.90;;;;;;;-14.61;74.05;100593.84;4860762;28;20062;-60
2022/12/08 13:31:03;;;;;;;38.58;12.35;;;;;;;-14.82;73.55;100597.84;4850479;28;20069;-61
2022/12/08 13:36:44;;;;;;;29.10;10.18;;;;;;;-14.81;74.31;100569.50;4817683;28;20050;-60
2022/12/08 13:39:47;;;;;;;38.72;16.00;;;;;;;-14.78;73.33;100599.84;4830374;28;20042;-60
2022/12/08 13:42:49;;;;;;;15.15;6.28;;;;;;;-15.27;74.54;100572.94;4848754;28;20050;-60
2022/12/08 13:45:53;;;;;;;24.17;8.07;;;;;;;-14.87;75.41;100599.06;4823961;28;20059;-61
2022/12/08 13:48:57;;;;;;;30.27;10.30;;;;;;;-14.73;75.55;100596.91;4860247;28;20117;-60
2022/12/08 13:52:06;;;;;;;34.28;10.73;;;;;;;-14.61;75.49;100603.00;4794707;28;20038;-60
2022/12/08 13:55:11;;;;;;;28.30;9.98;;;;;;;-14.87;74.53;100584.03;4845781;28;20038;-60
2022/12/08 13:58:15;;;;;;;24.02;8.18;;;;;;;-14.93;73.69;100596.00;4804954;28;20264;-60
2022/12/08 14:01:28;;;;;;;24.92;9.30;;;;;;;-15.02;73.80;100598.56;4849283;28;20188;-60
2022/12/08 14:04:10;;;;;;;27.23;9.32;;;;;;;-15.07;74.16;100588.88;4877325;28;20050;-60
2022/12/08 14:07:14;;;;;;;27.42;9.35;;;;;;;-14.86;73.57;100615.00;4922797;28;20052;-60
2022/12/08 14:10:05;;;;;;;36.50;11.70;;;;;;;-14.89;74.19;100598.03;4906292;28;20486;-61
2022/12/08 14:13:12;;;;;;;24.80;8.93;;;;;;;-14.54;74.22;100610.31;4973194;28;20076;-60
2022/12/08 14:15:54;;;;;;;17.38;7.38;;;;;;;-14.37;74.60;100615.16;4930093;28;20052;-60
2022/12/08 14:18:46;;;;;;;34.30;9.55;;;;;;;-14.11;75.19;100619.06;4932540;28;20066;-60
2022/12/08 14:21:32;;;;;;;11.60;5.40;;;;;;;-13.83;75.64;100631.47;4940755;28;20080;-61
2022/12/08 14:24:31;;;;;;;13.85;5.85;;;;;;;-13.51;76.73;100604.94;4931111;28;20055;-61
2022/12/08 14:27:22;;;;;;;13.40;5.30;;;;;;;-13.76;77.24;100538.28;4937789;28;20878;-60
2022/12/08 14:30:37;;;;;;;14.15;5.88;;;;;;;-13.31;76.47;100616.66;4932084;28;20588;-61
2022/12/08 14:33:36;;;;;;;21.63;6.57;;;;;;;-13.41;75.75;100613.25;4911284;28;20050;-62
2022/12/08 14:36:39;;;;;;;15.57;7.05;;;;;;;-13.44;75.29;100607.97;4923145;28;20044;-61
2022/12/08 14:39:36;;;;;;;13.15;6.03;;;;;;;-13.30;75.78;100592.41;4908849;28;20037;-61
2022/12/08 14:42:25;;;;;;;21.77;7.85;;;;;;;-12.91;77.09;100587.22;4934788;28;20205;-62
2022/12/08 14:45:16;;;;;;;17.38;7.43;;;;;;;-12.58;77.54;100604.94;4903514;28;20226;-61
2022/12/08 14:48:22;;;;;;;23.83;8.95;;;;;;;-12.56;76.38;100593.34;4897804;28;20436;-61
2022/12/08 14:54:24;;;;;;;22.15;7.95;;;;;;;-12.52;76.02;100600.41;4895690;28;20037;-62
2022/12/08 14:57:18;;;;;;;30.42;8.43;;;;;;;-12.53;76.17;100584.38;4902849;28;20138;-61
2022/12/08 15:00:06;;;;;;;19.55;7.45;;;;;;;-12.56;75.28;100598.38;4885706;28;20051;-62
2022/12/08 15:02:55;;;;;;;18.23;7.10;;;;;;;-12.67;75.12;100585.81;4886440;28;20049;-62
2022/12/08 15:05:45;;;;;;;16.52;7.03;;;;;;;-12.60;75.14;100578.00;4861519;28;20061;-62
2022/12/08 15:08:24;;;;;;;;;;;;;;;-12.20;75.67;100576.13;4902610;28;20058;-61
2022/12/08 15:11:36;;;;;;;14.00;5.97;;;;;;;-11.94;76.19;100569.72;4898599;28;20363;-61
2022/12/08 15:14:48;;;;;;;13.90;6.15;;;;;;;-11.72;76.43;100578.16;4887461;28;20071;-61
2022/12/08 15:17:36;;;;;;;17.45;6.97;;;;;;;-11.53;76.46;100564.41;4886548;28;20058;-61
2022/12/08 15:20:37;;;;;;;9.88;5.43;;;;;;;-11.69;75.30;100562.38;4917690;28;20048;-61
2022/12/08 15:23:31;;;;;;;12.15;6.28;;;;;;;-11.91;75.03;100534.69;4878653;28;20471;-61
2022/12/08 15:26:41;;;;;;;13.40;5.45;;;;;;;-11.51;75.37;100547.75;4892385;28;20100;-61
2022/12/08 15:29:22;;;;;;;13.80;4.95;;;;;;;-11.30;75.15;100554.44;4913685;28;20046;-61
2022/12/08 15:32:24;;;;;;;12.48;5.60;;;;;;;-11.85;74.76;100459.53;4906511;28;20238;-61
2022/12/08 15:35:08;;;;;;;11.75;5.30;;;;;;;-11.40;73.92;100561.22;4887974;28;20053;-61
2022/12/08 15:37:49;;;;;;;13.55;5.70;;;;;;;-11.53;73.81;100534.16;4868331;28;20123;-61
2022/12/08 15:40:43;;;;;;;10.23;4.43;;;;;;;-11.51;73.68;100550.28;4934202;28;20077;-62